createdAt,value
2023-04-02T00:02:23.427Z,100.00
2023-04-02T00:05:54.852Z,99.82
2023-04-02T00:09:12.923Z,100.00
2023-04-02T00:12:25.588Z,100.00
2023-04-02T00:15:45.443Z,100.00
2023-04-02T00:19:00.515Z,99.85
2023-04-02T00:22:21.225Z,99.74
2023-04-02T00:25:36.702Z,98.48
2023-04-02T00:28:50.837Z,97.91
2023-04-02T00:32:03.499Z,97.11
2023-04-02T00:35:21.463Z,97.44
2023-04-02T00:38:34.152Z,98.06
2023-04-02T00:41:49.283Z,97.98
2023-04-02T00:45:02.093Z,98.53
2023-04-02T00:48:34.257Z,98.86
2023-04-02T00:51:50.377Z,99.72
2023-04-02T00:55:06.983Z,100.00
2023-04-02T00:58:25.773Z,100.00
2023-04-02T01:01:42.697Z,100.00
2023-04-02T01:05:02.893Z,100.00
2023-04-02T01:08:50.656Z,100.00
2023-04-02T01:12:12.612Z,100.00
2023-04-02T01:15:27.538Z,100.00
2023-04-02T01:19:18.363Z,100.00
2023-04-02T01:23:00.363Z,100.00
2023-04-02T01:26:41.835Z,100.00
2023-04-02T01:29:56.757Z,100.00
2023-04-02T01:33:09.567Z,100.00
2023-04-02T01:36:54.540Z,100.00
2023-04-02T01:40:20.365Z,100.00
2023-04-02T01:43:37.446Z,100.00
2023-04-02T01:46:50.374Z,100.00
2023-04-02T01:50:20.200Z,100.00
2023-04-02T01:53:33.378Z,100.00
2023-04-02T01:56:47.276Z,100.00
2023-04-02T02:00:01.807Z,99.79
2023-04-02T02:03:14.654Z,99.64
2023-04-02T02:06:27.540Z,99.56
2023-04-02T02:09:39.938Z,99.77
2023-04-02T02:12:52.638Z,99.54
2023-04-02T02:16:06.738Z,99.15
2023-04-02T02:19:29.792Z,99.74
2023-04-02T02:22:46.907Z,100.00
2023-04-02T02:25:59.596Z,100.00
2023-04-02T02:29:12.004Z,99.89
2023-04-02T02:32:27.707Z,100.00
2023-04-02T02:35:50.958Z,100.00
2023-04-02T02:39:20.468Z,100.00
2023-04-02T02:42:37.024Z,100.00
2023-04-02T02:45:49.821Z,100.00
2023-04-02T02:49:02.418Z,99.70
2023-04-02T02:52:17.404Z,99.79
2023-04-02T02:55:34.870Z,99.97
2023-04-02T02:58:49.075Z,99.67
2023-04-02T03:02:02.011Z,99.36
2023-04-02T03:05:20.591Z,99.51
2023-04-02T03:09:04.463Z,98.96
2023-04-02T03:12:29.823Z,98.22
2023-04-02T03:15:42.665Z,98.49
2023-04-02T03:19:02.573Z,98.81
2023-04-02T03:22:17.006Z,99.18
2023-04-02T03:25:48.988Z,99.74
2023-04-02T03:29:19.417Z,100.00
2023-04-02T03:32:37.613Z,100.00
2023-04-02T03:36:06.310Z,100.00
2023-04-02T03:39:37.506Z,100.00
2023-04-02T03:42:56.088Z,99.85
2023-04-02T03:46:33.140Z,99.88
2023-04-02T03:50:08.808Z,100.00
2023-04-02T03:53:25.685Z,100.00
2023-04-02T03:56:41.470Z,100.00
2023-04-02T04:00:10.601Z,100.00
2023-04-02T04:03:32.953Z,100.00
2023-04-02T04:06:46.684Z,100.00
2023-04-02T04:09:59.097Z,100.00
2023-04-02T04:13:14.165Z,100.00
2023-04-02T04:16:32.496Z,100.00
2023-04-02T04:19:55.525Z,100.00
2023-04-02T04:23:25.888Z,100.00
2023-04-02T04:26:42.857Z,100.00
2023-04-02T04:30:03.954Z,100.00
2023-04-02T04:33:25.826Z,100.00
2023-04-02T04:36:54.327Z,100.00
2023-04-02T04:40:17.475Z,100.00
2023-04-02T04:43:42.197Z,100.00
2023-04-02T04:46:59.656Z,100.00
2023-04-02T04:50:23.033Z,100.00
2023-04-02T04:53:41.097Z,100.00
2023-04-02T04:56:56.388Z,100.00
2023-04-02T05:00:16.687Z,100.00
2023-04-02T05:03:35.811Z,100.00
2023-04-02T05:07:09.320Z,100.00
2023-04-02T05:10:44.516Z,100.00
2023-04-02T05:14:04.134Z,100.00
2023-04-02T05:17:21.495Z,100.00
2023-04-02T05:20:42.692Z,100.00
2023-04-02T05:24:00.302Z,100.00
2023-04-02T05:27:20.149Z,100.00
2023-04-02T05:30:57.099Z,100.00
2023-04-02T05:34:11.187Z,100.00
2023-04-02T05:37:25.836Z,100.00
2023-04-02T05:40:41.124Z,100.00
2023-04-02T05:44:24.603Z,100.00
2023-04-02T05:47:41.146Z,100.00
2023-04-02T05:50:56.003Z,100.00
2023-04-02T05:54:23.427Z,100.00
2023-04-02T05:58:13.491Z,100.00
2023-04-02T06:01:30.238Z,100.00
2023-04-02T06:04:50.705Z,98.83
2023-04-02T06:08:15.080Z,98.01
2023-04-02T06:11:32.268Z,98.08
2023-04-02T06:14:46.107Z,97.45
2023-04-02T06:18:06.749Z,97.06
2023-04-02T06:21:19.530Z,95.07
2023-04-02T06:24:34.049Z,95.76
2023-04-02T06:27:49.375Z,95.36
2023-04-02T06:31:08.439Z,94.72
2023-04-02T06:34:22.931Z,93.21
2023-04-02T06:37:37.796Z,93.05
2023-04-02T06:40:59.091Z,92.88
2023-04-02T06:44:15.986Z,92.02
2023-04-02T06:47:45.860Z,92.15
2023-04-02T06:51:07.535Z,92.04
2023-04-02T06:54:21.065Z,90.22
2023-04-02T06:57:35.842Z,90.19
2023-04-02T07:00:49.118Z,89.47
2023-04-02T07:04:03.033Z,88.37
2023-04-02T07:07:16.582Z,87.39
2023-04-02T07:10:30.042Z,87.92
2023-04-02T07:13:43.969Z,87.91
2023-04-02T07:16:57.120Z,86.38
2023-04-02T07:20:30.482Z,85.34
2023-04-02T07:23:44.438Z,85.94
2023-04-02T07:26:56.744Z,85.00
2023-04-02T07:30:09.780Z,84.80
2023-04-02T07:33:24.355Z,84.86
2023-04-02T07:36:37.034Z,83.06
2023-04-02T07:39:49.395Z,83.52
2023-04-02T07:43:02.159Z,82.39
2023-04-02T07:46:16.780Z,82.58
2023-04-02T07:49:29.529Z,81.53
2023-04-02T07:52:44.914Z,79.55
2023-04-02T07:55:58.895Z,78.61
2023-04-02T07:59:11.347Z,77.68
2023-04-02T08:02:24.097Z,78.18
2023-04-02T08:05:37.306Z,74.90
2023-04-02T08:08:50.407Z,75.33
2023-04-02T08:12:03.062Z,74.41
2023-04-02T08:15:16.124Z,73.26
2023-04-02T08:18:29.551Z,70.47
2023-04-02T08:21:41.876Z,70.00
2023-04-02T08:24:54.785Z,70.24
2023-04-02T08:28:07.147Z,68.14
2023-04-02T08:31:19.788Z,69.25
2023-04-02T08:34:32.177Z,70.35
2023-04-02T08:37:44.828Z,71.73
2023-04-02T08:40:57.744Z,70.68
2023-04-02T08:44:16.438Z,69.65
2023-04-02T08:47:30.539Z,70.12
2023-04-02T08:50:43.500Z,70.38
2023-04-02T08:54:04.208Z,70.20
2023-04-02T08:57:33.230Z,69.98
2023-04-02T09:00:45.779Z,69.56
2023-04-02T09:03:58.729Z,70.79
2023-04-02T09:07:14.400Z,68.44
2023-04-02T09:10:35.983Z,67.55
2023-04-02T09:13:51.437Z,68.39
2023-04-02T09:17:04.257Z,66.65
2023-04-02T09:20:19.434Z,67.24
2023-04-02T09:23:31.998Z,66.73
2023-04-02T09:26:44.421Z,66.40
2023-04-02T09:30:04.765Z,66.25
2023-04-02T09:33:17.195Z,66.64
2023-04-02T09:36:37.801Z,65.64
2023-04-02T09:39:50.371Z,66.37
2023-04-02T09:43:04.113Z,66.53
2023-04-02T09:46:26.161Z,66.68
2023-04-02T09:49:39.401Z,65.28
2023-04-02T09:52:51.845Z,65.65
2023-04-02T09:56:12.056Z,65.49
2023-04-02T09:59:24.440Z,64.34
2023-04-02T10:02:37.248Z,63.56
2023-04-02T10:05:50.070Z,63.83
2023-04-02T10:09:27.676Z,64.88
2023-04-02T10:12:41.219Z,64.92
2023-04-02T10:16:09.348Z,64.95
2023-04-02T10:19:52.616Z,65.19
2023-04-02T10:23:06.486Z,63.89
2023-04-02T10:26:41.333Z,65.72
2023-04-02T10:30:19.184Z,63.14
2023-04-02T10:33:34.564Z,63.60
2023-04-02T10:36:55.362Z,64.04
2023-04-02T10:40:12.401Z,62.02
2023-04-02T10:43:43.406Z,61.54
2023-04-02T10:47:14.437Z,61.83
2023-04-02T10:50:41.800Z,61.17
2023-04-02T10:54:12.680Z,61.23
2023-04-02T10:57:40.614Z,60.53
2023-04-02T11:01:17.048Z,58.56
2023-04-02T11:04:33.259Z,58.41
2023-04-02T11:07:57.510Z,62.96
2023-04-02T11:11:16.864Z,64.04
2023-04-02T11:14:31.008Z,62.69
2023-04-02T11:17:44.571Z,62.02
2023-04-02T11:20:59.200Z,61.35
2023-04-02T11:24:32.927Z,62.72
2023-04-02T11:27:45.719Z,62.32
2023-04-02T11:30:58.156Z,60.38
2023-04-02T11:34:42.150Z,59.97
2023-04-02T11:37:56.201Z,62.81
2023-04-02T11:41:08.800Z,63.87
2023-04-02T11:44:24.330Z,64.01
2023-04-02T11:47:37.063Z,61.91
2023-04-02T11:50:49.466Z,64.16
2023-04-02T11:54:02.176Z,62.87
2023-04-02T11:57:52.355Z,61.17
2023-04-02T12:01:36.385Z,62.28
2023-04-02T12:04:58.188Z,62.08
2023-04-02T12:08:50.721Z,63.38
2023-04-02T12:12:26.407Z,62.81
2023-04-02T12:15:46.244Z,59.47
2023-04-02T12:18:58.871Z,58.83
2023-04-02T12:22:20.295Z,59.11
2023-04-02T12:25:34.187Z,58.70
2023-04-02T12:28:46.525Z,58.12
2023-04-02T12:31:59.285Z,57.15
2023-04-02T12:35:33.385Z,58.32
2023-04-02T12:38:56.463Z,59.33
2023-04-02T12:42:27.708Z,59.28
2023-04-02T12:45:40.511Z,59.92
2023-04-02T12:48:54.387Z,60.00
2023-04-02T12:52:11.772Z,59.85
2023-04-02T12:55:24.449Z,57.56
2023-04-02T12:58:37.843Z,57.42
2023-04-02T13:01:57.860Z,56.66
2023-04-02T13:05:11.416Z,54.50
2023-04-02T13:08:27.275Z,53.85
2023-04-02T13:11:41.111Z,53.45
2023-04-02T13:14:57.199Z,53.06
2023-04-02T13:18:12.476Z,51.20
2023-04-02T13:21:28.563Z,48.47
2023-04-02T13:24:42.130Z,47.91
2023-04-02T13:27:54.717Z,47.29
2023-04-02T13:31:15.173Z,50.69
2023-04-02T13:34:27.596Z,49.82
2023-04-02T13:37:40.741Z,50.44
2023-04-02T13:40:53.178Z,48.55
2023-04-02T13:44:05.933Z,48.85
2023-04-02T13:47:18.267Z,46.53
2023-04-02T13:50:34.394Z,46.59
2023-04-02T13:53:54.717Z,50.56
2023-04-02T13:57:07.593Z,51.50
2023-04-02T14:00:20.606Z,52.07
2023-04-02T14:03:33.242Z,51.95
2023-04-02T14:07:04.169Z,52.09
2023-04-02T14:10:29.855Z,51.58
2023-04-02T14:13:48.662Z,52.54
2023-04-02T14:17:20.084Z,54.40
2023-04-02T14:20:58.481Z,56.34
2023-04-02T14:24:22.849Z,57.08
2023-04-02T14:27:45.221Z,57.85
2023-04-02T14:31:02.835Z,57.69
2023-04-02T14:34:22.162Z,57.75
2023-04-02T14:37:52.680Z,58.12
2023-04-02T14:41:08.865Z,57.57
2023-04-02T14:44:23.600Z,57.84
2023-04-02T14:47:45.678Z,57.41
2023-04-02T14:51:07.503Z,58.22
2023-04-02T14:54:50.168Z,57.62
2023-04-02T14:58:04.694Z,56.95
2023-04-02T15:01:28.151Z,54.74
2023-04-02T15:04:42.356Z,56.59
2023-04-02T15:08:05.677Z,58.02
2023-04-02T15:11:26.086Z,61.51
2023-04-02T15:14:44.486Z,67.33
2023-04-02T15:17:58.470Z,70.10
2023-04-02T15:21:19.902Z,70.87
2023-04-02T15:24:51.241Z,70.27
2023-04-02T15:28:35.714Z,72.05
2023-04-02T15:31:48.394Z,72.26
2023-04-02T15:35:16.181Z,73.68
2023-04-02T15:38:41.006Z,78.51
2023-04-02T15:42:15.714Z,84.67
2023-04-02T15:46:09.975Z,86.95
2023-04-02T15:49:31.370Z,89.21
2023-04-02T15:52:58.884Z,87.99
2023-04-02T15:56:17.340Z,88.27
2023-04-02T16:00:04.213Z,89.13
2023-04-02T16:03:42.522Z,91.34
2023-04-02T16:07:24.319Z,92.65
2023-04-02T16:10:42.608Z,91.67
2023-04-02T16:14:05.142Z,94.45
2023-04-02T16:17:40.961Z,93.30
2023-04-02T16:20:53.596Z,92.68
2023-04-02T16:24:11.522Z,92.34
2023-04-02T16:27:43.104Z,91.16
2023-04-02T16:30:59.853Z,89.58
2023-04-02T16:34:21.512Z,91.59
2023-04-02T16:37:38.306Z,94.57
2023-04-02T16:41:06.723Z,94.09
2023-04-02T16:44:42.162Z,94.82
2023-04-02T16:48:05.671Z,95.68
2023-04-02T16:51:33.324Z,92.96
2023-04-02T16:55:11.362Z,93.56
2023-04-02T16:58:40.515Z,94.86
2023-04-02T17:02:11.208Z,96.11
2023-04-02T17:05:36.078Z,95.36
2023-04-02T17:08:56.938Z,95.32
2023-04-02T17:12:10.602Z,95.52
2023-04-02T17:15:28.154Z,97.00
2023-04-02T17:18:41.735Z,95.91
2023-04-02T17:21:58.355Z,97.80
2023-04-02T17:25:17.943Z,98.67
2023-04-02T17:28:36.706Z,99.91
2023-04-02T17:31:49.187Z,98.81
2023-04-02T17:35:28.033Z,100.00
2023-04-02T17:39:35.769Z,100.00
2023-04-02T17:43:16.427Z,100.00
2023-04-02T17:46:37.797Z,99.66
2023-04-02T17:50:12.215Z,100.00
2023-04-02T17:53:27.414Z,100.00
2023-04-02T17:56:52.081Z,100.00
2023-04-02T18:00:13.259Z,100.00
2023-04-02T18:03:35.669Z,100.00
2023-04-02T18:06:50.733Z,100.00
2023-04-02T18:10:31.064Z,100.00
2023-04-02T18:14:12.516Z,100.00
2023-04-02T18:17:51.483Z,100.00
2023-04-02T18:21:28.147Z,100.00
2023-04-02T18:25:08.656Z,100.00
2023-04-02T18:28:51.108Z,100.00
2023-04-02T18:32:12.980Z,100.00
2023-04-02T18:35:25.216Z,95.79
2023-04-02T18:38:47.832Z,92.53
2023-04-02T18:42:23.420Z,94.48
2023-04-02T18:45:42.624Z,92.03
2023-04-02T18:49:18.341Z,91.32
2023-04-02T18:52:31.197Z,92.00
2023-04-02T18:55:47.786Z,92.36
2023-04-02T18:59:14.743Z,92.98
2023-04-02T19:02:33.035Z,94.35
2023-04-02T19:06:11.647Z,96.11
2023-04-02T19:09:30.974Z,97.23
2023-04-02T19:12:43.603Z,97.84
2023-04-02T19:16:04.400Z,95.17
2023-04-02T19:19:21.289Z,96.06
2023-04-02T19:23:14.215Z,96.84
2023-04-02T19:26:30.598Z,96.45
2023-04-02T19:29:55.860Z,96.32
2023-04-02T19:33:12.484Z,96.28
2023-04-02T19:36:47.921Z,96.92
2023-04-02T19:40:10.968Z,96.09
2023-04-02T19:43:23.253Z,96.60
2023-04-02T19:46:35.946Z,95.40
2023-04-02T19:49:48.293Z,93.83
2023-04-02T19:53:00.929Z,95.49
2023-04-02T19:56:13.311Z,95.00
2023-04-02T19:59:26.200Z,96.89
2023-04-02T20:02:38.554Z,95.42
2023-04-02T20:05:51.197Z,97.35
2023-04-02T20:09:03.610Z,100.00
2023-04-02T20:12:16.199Z,100.00
2023-04-02T20:15:28.625Z,100.00
2023-04-02T20:18:41.262Z,100.00
2023-04-02T20:21:53.594Z,100.00
2023-04-02T20:25:06.659Z,100.00
2023-04-02T20:28:20.235Z,100.00
2023-04-02T20:31:32.996Z,100.00
2023-04-02T20:34:45.410Z,100.00
2023-04-02T20:37:58.038Z,100.00
2023-04-02T20:41:10.427Z,100.00
2023-04-02T20:44:23.059Z,100.00
2023-04-02T20:47:35.448Z,100.00
2023-04-02T20:50:49.160Z,100.00
2023-04-02T20:54:01.824Z,100.00
2023-04-02T20:57:14.494Z,100.00
2023-04-02T21:00:27.236Z,100.00
2023-04-02T21:03:40.188Z,100.00
2023-04-02T21:06:57.031Z,100.00
2023-04-02T21:10:09.912Z,100.00
2023-04-02T21:13:22.161Z,100.00
2023-04-02T21:16:36.313Z,100.00
2023-04-02T21:19:48.744Z,100.00
2023-04-02T21:23:01.348Z,100.00
2023-04-02T21:26:15.791Z,100.00
2023-04-02T21:29:28.462Z,100.00
2023-04-02T21:32:41.031Z,100.00
2023-04-02T21:35:54.198Z,100.00
2023-04-02T21:39:11.510Z,100.00
2023-04-02T21:42:24.298Z,100.00
2023-04-02T21:45:36.887Z,100.00
2023-04-02T21:48:51.814Z,100.00
2023-04-02T21:52:04.198Z,100.00
2023-04-02T21:55:16.900Z,100.00
2023-04-02T21:58:29.276Z,100.00
2023-04-02T22:01:43.797Z,100.00
2023-04-02T22:04:56.544Z,100.00
2023-04-02T22:08:08.871Z,100.00
2023-04-02T22:11:23.745Z,100.00
2023-04-02T22:14:36.093Z,100.00
2023-04-02T22:17:48.749Z,100.00
2023-04-02T22:21:01.692Z,100.00
2023-04-02T22:24:15.558Z,100.00
2023-04-02T22:27:27.876Z,100.00
2023-04-02T22:30:41.575Z,100.00
2023-04-02T22:33:54.523Z,100.00
2023-04-02T22:37:07.179Z,100.00
2023-04-02T22:40:19.492Z,100.00
2023-04-02T22:43:32.223Z,100.00
2023-04-02T22:46:44.801Z,100.00
2023-04-02T22:49:57.478Z,100.00
2023-04-02T22:53:11.970Z,100.00
2023-04-02T22:56:28.559Z,100.00
2023-04-02T22:59:41.176Z,100.00
2023-04-02T23:02:53.975Z,100.00
2023-04-02T23:06:11.606Z,100.00
2023-04-02T23:09:24.244Z,100.00
2023-04-02T23:12:36.584Z,100.00
2023-04-02T23:15:49.253Z,100.00
2023-04-02T23:19:01.612Z,100.00
2023-04-02T23:22:14.316Z,100.00
2023-04-02T23:25:26.675Z,100.00
2023-04-02T23:28:39.679Z,100.00
2023-04-02T23:31:52.074Z,100.00
2023-04-02T23:35:06.470Z,100.00
2023-04-02T23:38:18.829Z,100.00
2023-04-02T23:41:31.534Z,100.00
2023-04-02T23:44:43.846Z,100.00
2023-04-02T23:47:56.529Z,100.00
2023-04-02T23:51:08.969Z,100.00
2023-04-02T23:54:21.559Z,100.00
2023-04-02T23:57:33.992Z,100.00
